Time;durP1;ratioP1;P1;durP2;ratioP2;P2;SDS_P1;SDS_P2;PMS_P1;PMS_P2;Temp;Humidity;BMP_temperature;BMP_pressure;BME280_temperature;BME280_humidity;BME280_pressure;Samples;Min_cycle;Max_cycle;Signal;HPM_P1;HPM_P2
2021/06/20 00:02:03;;;;;;;16.07;12.50;;;;;;;23.18;76.46;99883.16;2774255;86;21044;-65
2021/06/20 00:06:13;;;;;;;16.52;12.68;;;;;;;23.03;77.12;99884.30;2774380;86;21001;-65
2021/06/20 00:10:20;;;;;;;14.50;11.85;;;;;;;23.00;77.46;99878.50;2773130;86;21036;-65
2021/06/20 00:14:22;;;;;;;13.48;12.10;;;;;;;22.99;77.32;99875.45;2774150;85;21044;-65
2021/06/20 00:18:23;;;;;;;24.15;13.18;;;;;;;22.94;77.30;99867.45;2774283;86;21004;-66
2021/06/20 00:22:25;;;;;;;13.48;11.10;;;;;;;22.85;77.38;99868.77;2774123;86;21104;-65
2021/06/20 00:26:27;;;;;;;13.75;11.25;;;;;;;22.61;77.58;99861.70;2773956;86;21063;-66
2021/06/20 00:30:31;;;;;;;14.10;11.48;;;;;;;22.35;78.82;99858.01;2774000;86;21024;-66
2021/06/20 00:34:33;;;;;;;14.15;11.30;;;;;;;22.21;79.69;99852.35;2773729;86;21044;-65
2021/06/20 00:38:36;;;;;;;14.80;12.30;;;;;;;22.14;80.05;99853.72;2774075;86;21051;-67
2021/06/20 00:42:38;;;;;;;18.00;13.15;;;;;;;22.06;80.44;99850.72;2773723;85;21032;-65
2021/06/20 00:46:39;;;;;;;17.10;12.63;;;;;;;22.06;81.51;99853.42;2773607;85;21088;-65
2021/06/20 00:50:41;;;;;;;19.82;13.90;;;;;;;22.06;81.99;99839.89;2774015;85;20981;-65
2021/06/20 00:54:47;;;;;;;17.85;14.13;;;;;;;22.09;81.97;99825.91;2773679;86;21055;-65
2021/06/20 00:58:48;;;;;;;17.30;13.20;;;;;;;22.15;81.67;99816.11;2774042;86;20985;-66
2021/06/20 01:02:50;;;;;;;22.17;13.38;;;;;;;22.10;81.66;99815.39;2774018;86;21033;-65
2021/06/20 01:06:53;;;;;;;29.05;15.80;;;;;;;22.06;81.71;99829.05;2773360;86;21041;-66
2021/06/20 01:10:55;;;;;;;19.73;14.73;;;;;;;22.02;81.82;99825.11;2774071;86;20977;-65
2021/06/20 01:14:58;;;;;;;18.98;14.63;;;;;;;22.07;81.50;99825.30;2773818;86;21036;-65
2021/06/20 01:18:59;;;;;;;21.73;14.73;;;;;;;22.11;81.46;99814.34;2773868;86;21004;-65
2021/06/20 01:23:01;;;;;;;21.00;14.78;;;;;;;22.10;81.44;99821.31;2773835;86;21067;-65
2021/06/20 01:27:06;;;;;;;19.73;15.40;;;;;;;22.08;81.62;99823.41;2773946;86;21080;-65
2021/06/20 01:31:11;;;;;;;23.55;14.70;;;;;;;22.03;81.67;99817.30;2774233;86;21076;-65
2021/06/20 01:35:13;;;;;;;17.60;14.13;;;;;;;21.99;81.71;99811.98;2767431;85;21012;-65
2021/06/20 01:39:16;;;;;;;20.77;14.73;;;;;;;21.94;81.98;99819.91;2765878;86;21321;-65
2021/06/20 01:43:18;;;;;;;19.23;13.93;;;;;;;21.85;82.78;99814.43;2766173;86;21068;-65
2021/06/20 01:47:23;;;;;;;14.15;12.50;;;;;;;21.76;83.06;99813.28;2765926;85;21570;-66
2021/06/20 01:51:25;;;;;;;19.77;12.63;;;;;;;21.72;83.59;99805.28;2766125;86;21024;-65
2021/06/20 01:55:30;;;;;;;16.10;13.43;;;;;;;21.67;83.89;99799.14;2766251;86;21012;-65
2021/06/20 01:59:32;;;;;;;19.25;14.95;;;;;;;21.55;84.40;99801.63;2765899;86;21077;-65
2021/06/20 02:03:34;;;;;;;23.73;15.43;;;;;;;21.40;85.24;99801.02;2766191;86;21040;-65
2021/06/20 02:07:37;;;;;;;18.85;14.93;;;;;;;21.36;85.62;99797.07;2765865;86;21017;-65
2021/06/20 02:11:39;;;;;;;18.30;16.23;;;;;;;21.41;85.75;99794.56;2766059;86;21016;-65
2021/06/20 02:15:41;;;;;;;17.92;16.05;;;;;;;21.46;85.74;99788.02;2766196;86;21045;-65
2021/06/20 02:19:43;;;;;;;18.98;15.88;;;;;;;21.55;85.46;99788.64;2765868;86;21048;-65
2021/06/20 02:23:45;;;;;;;18.02;13.40;;;;;;;21.60;85.31;99792.05;2765952;86;21057;-65
2021/06/20 02:27:50;;;;;;;24.95;15.63;;;;;;;21.58;85.25;99784.66;2766063;86;20989;-66
2021/06/20 02:31:52;;;;;;;;;;;;;;;21.52;85.37;99787.17;2768578;86;21001;-66
2021/06/20 02:35:54;;;;;;;17.25;13.75;;;;;;;21.54;85.55;99783.73;2773285;86;20172;-66
2021/06/20 02:39:56;;;;;;;21.55;15.50;;;;;;;21.56;85.38;99788.95;2773921;86;21013;-65
2021/06/20 02:43:59;;;;;;;18.67;16.02;;;;;;;21.59;85.08;99787.17;2773944;86;21025;-65
2021/06/20 02:48:00;;;;;;;21.95;15.70;;;;;;;21.57;84.97;99777.59;2773447;85;21084;-66
2021/06/20 02:52:04;;;;;;;50.00;19.02;;;;;;;21.49;84.94;99766.47;2773854;86;21487;-65
2021/06/20 02:56:06;;;;;;;33.42;16.15;;;;;;;21.46;85.17;99765.03;2773847;86;21588;-66
2021/06/20 03:00:10;;;;;;;22.87;15.15;;;;;;;21.30;85.79;99771.69;2774001;86;21032;-66
2021/06/20 03:04:14;;;;;;;18.52;13.58;;;;;;;21.18;86.39;99780.95;2774110;86;21068;-65
2021/06/20 03:08:16;;;;;;;23.52;15.25;;;;;;;21.21;87.05;99758.89;2773993;86;21005;-66
2021/06/20 03:12:19;;;;;;;28.40;16.35;;;;;;;21.30;86.87;99756.81;2773811;86;20989;-65
2021/06/20 03:16:23;;;;;;;20.30;14.18;;;;;;;21.35;86.96;99753.48;2773717;86;21029;-65
2021/06/20 03:20:25;;;;;;;19.77;14.35;;;;;;;21.38;87.43;99749.00;2773832;86;21059;-65
2021/06/20 03:24:29;;;;;;;18.07;16.15;;;;;;;21.44;87.67;99753.59;2773873;86;21561;-65
2021/06/20 03:28:31;;;;;;;16.67;14.65;;;;;;;21.62;87.43;99749.39;2773928;86;21047;-66
2021/06/20 03:32:33;;;;;;;20.10;14.10;;;;;;;21.74;86.91;99756.37;2773957;85;21111;-65
2021/06/20 03:36:34;;;;;;;25.02;15.38;;;;;;;21.74;86.74;99769.36;2765519;86;21613;-65
2021/06/20 03:40:36;;;;;;;17.00;14.10;;;;;;;21.73;86.96;99770.95;2766097;86;21558;-65
2021/06/20 03:44:38;;;;;;;24.15;15.00;;;;;;;21.84;86.99;99763.50;2766230;86;20997;-65
2021/06/20 03:48:41;;;;;;;24.37;15.83;;;;;;;21.92;86.41;99765.15;2765529;85;21064;-65
2021/06/20 03:52:43;;;;;;;25.60;15.58;;;;;;;21.98;86.37;99775.11;2765933;86;21004;-65
2021/06/20 03:56:45;;;;;;;22.30;15.85;;;;;;;22.00;86.36;99785.20;2765954;86;21001;-65
2021/06/20 04:00:46;;;;;;;21.93;16.37;;;;;;;22.11;86.35;99794.57;2765789;86;21069;-65
2021/06/20 04:04:50;;;;;;;23.32;16.37;;;;;;;22.22;85.92;99794.42;2766283;86;21052;-65
2021/06/20 04:08:52;;;;;;;16.82;14.85;;;;;;;22.42;85.52;99801.63;2765810;86;21100;-65
2021/06/20 04:12:54;;;;;;;18.95;14.60;;;;;;;22.70;84.74;99812.65;2766024;86;21020;-66
2021/06/20 04:16:56;;;;;;;17.75;15.05;;;;;;;22.92;83.95;99811.79;2765934;86;21037;-64
2021/06/20 04:20:58;;;;;;;19.17;14.40;;;;;;;23.19;84.38;99811.06;2766086;86;21005;-65
2021/06/20 04:25:00;;;;;;;22.45;15.18;;;;;;;23.67;83.54;99808.23;2766312;86;21005;-65
2021/06/20 04:29:05;;;;;;;23.50;14.45;;;;;;;24.55;81.34;99804.52;2766436;86;21036;-66
2021/06/20 04:33:07;;;;;;;16.57;14.70;;;;;;;25.44;77.46;99812.51;2767422;86;21024;-64
2021/06/20 04:37:11;;;;;;;14.75;12.45;;;;;;;26.24;74.37;99813.47;2774948;86;21060;-65
2021/06/20 04:41:15;;;;;;;17.07;12.68;;;;;;;26.86;72.56;99808.39;2774789;86;21013;-67
2021/06/20 04:45:16;;;;;;;17.02;14.58;;;;;;;27.33;69.31;99799.06;2774046;85;21032;-65
2021/06/20 04:49:19;;;;;;;18.10;14.60;;;;;;;27.70;68.26;99805.90;2774148;85;21131;-66
2021/06/20 04:53:21;;;;;;;17.55;14.15;;;;;;;28.09;66.88;99801.20;2774311;86;21056;-66
2021/06/20 04:57:30;;;;;;;15.80;14.00;;;;;;;28.48;65.96;99797.59;2774322;86;21028;-65
2021/06/20 05:01:32;;;;;;;16.48;12.28;;;;;;;28.48;65.08;99799.48;2774356;86;21040;-66
2021/06/20 05:05:35;;;;;;;20.60;13.40;;;;;;;28.51;65.16;99792.16;2774397;86;21032;-65
2021/06/20 05:09:38;;;;;;;18.87;14.55;;;;;;;28.69;65.67;99785.48;2774250;86;21009;-65
2021/06/20 05:13:40;;;;;;;14.28;12.75;;;;;;;28.90;64.98;99792.02;2774764;85;21021;-65
2021/06/20 05:17:42;;;;;;;14.95;13.03;;;;;;;29.14;64.17;99791.66;2774805;86;21033;-65
2021/06/20 05:21:44;;;;;;;16.35;13.38;;;;;;;29.03;63.38;99788.54;2774738;86;21578;-67
2021/06/20 05:25:46;;;;;;;15.20;13.70;;;;;;;28.90;63.45;99789.80;2774712;86;21049;-66
2021/06/20 05:29:48;;;;;;;22.87;13.72;;;;;;;28.79;63.63;99794.33;2774617;86;21008;-66
2021/06/20 05:33:49;;;;;;;16.48;12.05;;;;;;;28.58;64.42;99792.77;2774389;86;21079;-65
2021/06/20 05:37:51;;;;;;;15.03;13.05;;;;;;;28.76;64.99;99791.56;2774703;86;21080;-66
2021/06/20 05:41:53;;;;;;;14.03;11.22;;;;;;;28.83;63.78;99791.95;2774463;86;21021;-66
2021/06/20 05:46:01;;;;;;;24.00;12.58;;;;;;;28.79;64.20;99799.81;2774819;85;21127;-65
2021/06/20 05:50:03;;;;;;;13.72;12.47;;;;;;;29.05;64.50;99805.53;2774699;86;21076;-69
2021/06/20 05:54:06;;;;;;;15.08;13.15;;;;;;;29.30;63.56;99806.84;2774788;86;21008;-69
2021/06/20 05:58:08;;;;;;;18.67;14.65;;;;;;;29.50;63.50;99801.53;2775173;86;21024;-68
2021/06/20 06:02:10;;;;;;;14.20;11.45;;;;;;;29.71;62.54;99794.80;2775126;86;21064;-69
2021/06/20 06:06:12;;;;;;;12.20;10.98;;;;;;;29.81;61.88;99794.03;2775221;86;21025;-67
2021/06/20 06:10:13;;;;;;;13.38;11.97;;;;;;;30.01;62.39;99786.42;2775310;86;21072;-68
2021/06/20 06:14:15;;;;;;;14.90;11.00;;;;;;;30.11;61.94;99778.81;2775409;86;20997;-68
2021/06/20 06:18:17;;;;;;;12.43;11.12;;;;;;;30.19;61.46;99781.59;2775237;86;21103;-68
2021/06/20 06:22:22;;;;;;;15.20;11.33;;;;;;;30.42;62.06;99774.80;2775554;86;21001;-70
2021/06/20 06:26:30;;;;;;;16.07;12.13;;;;;;;30.53;60.53;99761.92;2775338;85;21016;-67
2021/06/20 06:30:33;;;;;;;12.60;11.05;;;;;;;30.57;60.07;99752.61;2775540;86;20985;-69
2021/06/20 06:34:36;;;;;;;15.03;10.60;;;;;;;30.64;60.52;99741.64;2774284;86;21032;-69
2021/06/20 06:38:38;;;;;;;12.40;10.82;;;;;;;30.82;60.53;99744.13;2775064;86;21091;-69
2021/06/20 06:42:40;;;;;;;12.53;9.85;;;;;;;30.83;60.13;99752.08;2774921;86;20997;-70
2021/06/20 06:46:42;;;;;;;14.85;10.82;;;;;;;30.91;59.33;99761.16;2768109;83;21625;-68
2021/06/20 06:50:44;;;;;;;35.30;13.45;;;;;;;31.09;60.20;99763.07;2768353;86;20995;-69
2021/06/20 06:54:51;;;;;;;12.03;10.93;;;;;;;31.16;59.74;99761.42;2803643;85;21030;-68
2021/06/20 06:58:53;;;;;;;12.07;9.73;;;;;;;31.20;58.77;99756.48;2804049;85;21130;-71
2021/06/20 07:02:55;;;;;;;13.98;9.13;;;;;;;31.49;59.24;99758.63;2803945;85;21303;-70
2021/06/20 07:06:57;;;;;;;10.48;9.38;;;;;;;31.67;58.64;99757.75;2784472;83;21028;-69
2021/06/20 07:10:59;;;;;;;11.68;9.38;;;;;;;31.95;58.46;99767.03;2755874;86;21044;-69
2021/06/20 07:15:07;;;;;;;11.45;10.20;;;;;;;32.18;57.74;99772.40;2755799;85;20997;-69
2021/06/20 07:19:09;;;;;;;10.18;9.15;;;;;;;32.34;58.07;99767.68;2755697;86;20993;-68
2021/06/20 07:23:11;;;;;;;12.33;9.13;;;;;;;32.54;57.11;99765.33;2755606;86;21012;-69
2021/06/20 07:27:13;;;;;;;13.08;9.73;;;;;;;32.60;56.75;99775.19;2755943;86;21072;-70
2021/06/20 07:31:15;;;;;;;9.68;8.58;;;;;;;32.56;55.84;99765.86;2755949;86;21005;-69
2021/06/20 07:35:17;;;;;;;12.25;9.45;;;;;;;32.62;55.88;99761.98;2757596;85;20998;-68
2021/06/20 07:39:18;;;;;;;9.78;8.75;;;;;;;32.76;56.60;99762.69;2775619;85;21010;-69
2021/06/20 07:43:22;;;;;;;10.63;8.45;;;;;;;32.90;54.89;99759.58;2812328;84;20996;-70
2021/06/20 07:47:25;;;;;;;11.88;10.68;;;;;;;33.08;55.01;99746.20;2813029;84;21094;-69
2021/06/20 07:51:27;;;;;;;11.00;9.00;;;;;;;33.25;55.27;99748.50;2812358;84;21027;-68
2021/06/20 07:55:29;;;;;;;13.85;10.63;;;;;;;33.41;55.08;99749.19;2812784;84;21019;-69
2021/06/20 07:59:31;;;;;;;9.90;8.85;;;;;;;33.46;55.26;99746.94;2776670;84;21017;-68
2021/06/20 08:03:34;;;;;;;15.90;9.05;;;;;;;33.60;53.55;99740.16;2811888;84;21066;-69
2021/06/20 08:07:36;;;;;;;13.05;10.32;;;;;;;33.68;53.97;99737.31;2731918;86;21040;-70
2021/06/20 08:11:38;;;;;;;9.70;8.90;;;;;;;33.90;54.19;99736.22;2812064;84;21039;-70
2021/06/20 08:15:50;;;;;;;9.80;8.18;;;;;;;34.06;53.21;99740.16;2731971;87;21032;-71
2021/06/20 08:19:52;;;;;;;9.10;8.20;;;;;;;34.09;53.60;99726.34;2812031;84;21035;-70
2021/06/20 08:23:54;;;;;;;9.58;8.58;;;;;;;34.24;53.20;99728.88;2731985;87;21026;-70
2021/06/20 08:27:56;;;;;;;8.98;8.08;;;;;;;34.25;52.99;99731.90;2732413;87;21049;-70
2021/06/20 08:31:59;;;;;;;14.80;9.03;;;;;;;34.30;54.21;99727.67;2732076;87;21032;-70
2021/06/20 08:36:02;;;;;;;11.12;8.45;;;;;;;34.41;53.65;99723.39;2809419;83;21070;-70
2021/06/20 08:40:06;;;;;;;8.88;7.12;;;;;;;34.53;52.95;99714.67;2774891;83;21069;-70
2021/06/20 08:44:32;;;;;;;8.65;7.60;;;;;;;34.57;52.70;99724.80;2767065;86;21001;-70
2021/06/20 08:48:34;;;;;;;9.40;8.08;;;;;;;34.67;51.48;99728.52;2766425;85;21084;-70
2021/06/20 08:52:35;;;;;;;9.75;7.08;;;;;;;34.80;51.31;99718.09;2766960;86;21023;-69
2021/06/20 08:56:45;;;;;;;7.67;6.97;;;;;;;34.81;51.66;99723.88;2766886;86;21013;-69
2021/06/20 09:00:47;;;;;;;10.15;8.28;;;;;;;34.88;50.45;99722.91;2767019;86;21040;-70
2021/06/20 09:05:01;;;;;;;9.70;7.78;;;;;;;34.80;50.55;99715.33;2767029;86;21033;-70
2021/06/20 09:09:08;;;;;;;11.38;8.20;;;;;;;34.74;52.02;99710.99;2827163;83;21003;-70
2021/06/20 09:13:09;;;;;;;10.35;7.08;;;;;;;34.77;52.01;99717.86;2766400;86;21048;-70
2021/06/20 09:17:29;;;;;;;8.13;6.87;;;;;;;34.93;49.64;99720.63;2760410;86;21021;-69
2021/06/20 09:21:30;;;;;;;7.90;7.15;;;;;;;34.86;50.20;99723.77;2751604;86;21044;-70
2021/06/20 09:25:35;;;;;;;52.33;13.88;;;;;;;35.03;50.04;99721.83;2765903;86;21017;-71
2021/06/20 09:29:39;;;;;;;7.85;6.85;;;;;;;35.09;48.76;99711.51;2765890;85;21041;-71
2021/06/20 09:33:41;;;;;;;8.58;7.78;;;;;;;35.09;48.96;99718.42;2766294;86;21029;-70
2021/06/20 09:37:53;;;;;;;6.42;5.70;;;;;;;35.19;49.23;99705.55;2756526;85;21086;-69
2021/06/20 09:42:03;;;;;;;11.28;6.83;;;;;;;35.21;49.08;99700.53;2812865;84;21039;-70
2021/06/20 09:46:11;;;;;;;6.70;5.62;;;;;;;35.28;47.52;99698.17;2812364;84;21099;-69
2021/06/20 09:50:13;;;;;;;5.55;5.05;;;;;;;35.37;48.77;99699.66;2777824;85;21063;-70
2021/06/20 09:54:15;;;;;;;5.10;4.65;;;;;;;35.40;46.81;99690.20;2781196;85;21047;-70
2021/06/20 09:58:21;;;;;;;6.67;4.87;;;;;;;35.32;46.71;99688.13;2783438;85;21059;-69
2021/06/20 10:02:30;;;;;;;5.90;5.30;;;;;;;35.32;46.57;99686.75;2783535;85;21740;-71
2021/06/20 10:06:34;;;;;;;5.95;5.45;;;;;;;35.38;45.59;99681.39;2781701;85;21576;-68
2021/06/20 10:10:37;;;;;;;5.75;5.25;;;;;;;35.39;45.25;99679.43;2777842;85;20986;-69
2021/06/20 10:14:46;;;;;;;6.03;5.42;;;;;;;35.40;45.36;99671.39;2808812;84;21011;-69
2021/06/20 10:19:04;;;;;;;8.08;6.17;;;;;;;35.57;46.68;99673.00;2809024;84;21083;-68
2021/06/20 10:23:19;;;;;;;5.95;5.35;;;;;;;35.65;44.63;99668.69;2766287;85;21563;-68
2021/06/20 10:27:35;;;;;;;7.05;5.65;;;;;;;35.63;44.38;99669.56;2807338;84;21062;-68
2021/06/20 10:31:37;;;;;;;5.65;5.10;;;;;;;35.67;45.62;99670.58;2806745;84;21023;-68
2021/06/20 10:35:41;;;;;;;5.25;4.75;;;;;;;35.86;45.93;99657.16;2723643;87;21027;-70
2021/06/20 10:39:54;;;;;;;5.17;4.75;;;;;;;35.93;45.86;99654.77;2708446;88;21049;-71
2021/06/20 10:44:04;;;;;;;5.35;4.95;;;;;;;36.00;44.78;99659.33;2793243;85;21024;-70
2021/06/20 10:48:23;;;;;;;5.33;4.83;;;;;;;36.04;44.30;99656.77;2790664;84;21025;-70
2021/06/20 10:52:24;;;;;;;6.65;4.75;;;;;;;36.06;44.45;99655.89;2791492;85;21019;-70
2021/06/20 10:56:34;;;;;;;4.45;3.85;;;;;;;36.12;44.32;99649.67;2792512;85;21039;-70
2021/06/20 11:00:37;;;;;;;6.35;4.20;;;;;;;36.09;42.65;99636.46;2790264;85;21107;-70
2021/06/20 11:04:44;;;;;;;6.97;4.15;;;;;;;36.15;43.05;99629.66;2792386;84;20993;-70
2021/06/20 11:09:06;;;;;;;4.95;4.47;;;;;;;36.23;43.07;99633.63;2708666;88;21543;-70
2021/06/20 11:13:10;;;;;;;5.97;4.37;;;;;;;36.19;42.63;99631.25;2792757;85;21028;-70
2021/06/20 11:17:18;;;;;;;8.13;4.67;;;;;;;35.98;42.58;99628.39;2788321;85;21005;-70
2021/06/20 11:21:26;;;;;;;4.42;4.03;;;;;;;35.82;43.02;99636.80;2791203;84;21072;-70
2021/06/20 11:25:29;;;;;;;5.08;4.67;;;;;;;35.81;41.93;99624.89;2792605;84;21036;-70
2021/06/20 11:29:56;;;;;;;4.45;4.05;;;;;;;35.90;41.52;99622.20;2789500;85;21000;-70
2021/06/20 11:33:59;;;;;;;6.80;5.20;;;;;;;35.99;42.91;99609.27;2708770;88;21018;-70
2021/06/20 11:38:00;;;;;;;4.15;3.75;;;;;;;36.15;43.97;99614.44;2790808;85;21024;-70
2021/06/20 11:42:04;;;;;;;4.33;3.92;;;;;;;36.34;42.94;99606.50;2707984;88;21051;-70
2021/06/20 11:46:17;;;;;;;5.08;4.58;;;;;;;36.48;42.32;99606.45;2792719;84;21166;-70
2021/06/20 11:50:28;;;;;;;3.65;3.35;;;;;;;36.57;42.64;99601.79;2786382;85;21064;-70
2021/06/20 11:54:31;;;;;;;4.95;4.45;;;;;;;36.46;42.31;99598.45;2790922;85;21060;-70
2021/06/20 11:58:42;;;;;;;5.45;4.65;;;;;;;36.53;41.39;99596.06;2794492;84;21063;-70
2021/06/20 12:02:46;;;;;;;5.40;4.55;;;;;;;36.62;41.07;99603.61;2707319;88;21026;-70
2021/06/20 12:06:49;;;;;;;4.83;4.42;;;;;;;36.62;42.41;99606.38;2791826;85;21076;-70
2021/06/20 12:10:51;;;;;;;6.50;5.33;;;;;;;36.65;41.03;99600.20;2788129;85;21075;-70
2021/06/20 12:14:59;;;;;;;5.25;4.75;;;;;;;36.66;40.85;99598.51;2793665;85;21115;-69
2021/06/20 12:19:05;;;;;;;7.95;4.22;;;;;;;36.70;40.76;99604.20;2797983;84;21122;-72
2021/06/20 12:23:09;;;;;;;4.62;4.33;;;;;;;36.68;41.76;99594.02;2785527;85;21681;-68
2021/06/20 12:27:37;;;;;;;4.37;3.98;;;;;;;36.69;41.09;99588.73;2792875;84;21114;-69
2021/06/20 12:31:41;;;;;;;5.22;4.72;;;;;;;36.71;42.50;99596.14;2764993;85;21000;-69
2021/06/20 12:36:04;;;;;;;43.98;12.23;;;;;;;36.65;40.07;99589.13;2790069;85;21032;-70
2021/06/20 12:40:01;;;;;;;4.70;4.25;;;;;;;36.64;42.69;99586.91;2784894;85;21071;-71
2021/06/20 12:44:08;;;;;;;4.22;3.92;;;;;;;36.60;41.24;99588.69;2792409;85;21004;-72
2021/06/20 12:48:22;;;;;;;8.05;5.80;;;;;;;36.64;41.21;99583.33;2792977;84;21071;-70
2021/06/20 12:52:31;;;;;;;4.37;3.98;;;;;;;36.84;41.36;99581.37;2790192;85;21044;-72
2021/06/20 12:56:39;;;;;;;6.80;5.50;;;;;;;36.95;42.02;99582.45;2789329;85;21008;-69
2021/06/20 13:00:41;;;;;;;9.05;4.40;;;;;;;36.93;41.50;99570.33;2794016;84;21000;-71
2021/06/20 13:04:47;;;;;;;5.25;4.75;;;;;;;36.84;43.67;99566.14;2793807;84;20996;-71
2021/06/20 13:08:50;;;;;;;5.53;5.08;;;;;;;36.93;42.06;99575.88;2792647;84;21020;-68
2021/06/20 13:12:52;;;;;;;5.08;4.55;;;;;;;36.94;41.52;99566.42;2794342;84;20988;-72
2021/06/20 13:16:56;;;;;;;4.92;4.53;;;;;;;37.11;41.79;99561.51;2793864;85;20996;-70
2021/06/20 13:20:57;;;;;;;;;;;;;;;37.08;41.11;99559.97;2786425;84;21072;-69
2021/06/20 13:25:08;;;;;;;6.37;4.58;;;;;;;36.95;41.61;99558.91;2792998;84;20080;-70
2021/06/20 13:29:10;;;;;;;5.03;4.62;;;;;;;36.81;43.08;99560.42;2790916;85;21001;-71
2021/06/20 13:33:12;;;;;;;5.12;4.62;;;;;;;36.80;42.93;99550.47;2793511;84;21032;-69
2021/06/20 13:37:14;;;;;;;4.72;4.33;;;;;;;36.86;41.35;99554.16;2774824;83;21576;-70
2021/06/20 13:41:16;;;;;;;5.67;4.72;;;;;;;36.91;40.93;99555.15;2709056;87;21049;-69
2021/06/20 13:45:22;;;;;;;19.95;7.65;;;;;;;36.83;42.54;99540.13;2792320;85;21091;-69
2021/06/20 13:49:24;;;;;;;5.20;4.28;;;;;;;36.80;41.47;99540.22;2793203;84;21044;-70
2021/06/20 13:53:26;;;;;;;10.03;4.62;;;;;;;36.69;41.49;99545.80;2794108;85;21000;-70
2021/06/20 13:57:29;;;;;;;5.87;4.45;;;;;;;36.58;40.13;99537.78;2792412;85;21032;-70
2021/06/20 14:01:31;;;;;;;9.68;6.33;;;;;;;36.55;41.60;99534.83;2791823;84;21019;-70
2021/06/20 14:05:35;;;;;;;8.93;8.13;;;;;;;36.49;43.56;99531.93;2792135;85;20980;-70
2021/06/20 14:09:37;;;;;;;5.67;5.17;;;;;;;36.35;41.97;99526.47;2794026;85;21306;-70
2021/06/20 14:13:39;;;;;;;6.05;5.53;;;;;;;36.27;42.52;99523.35;2788304;85;20988;-69
2021/06/20 14:17:40;;;;;;;5.28;4.78;;;;;;;36.18;42.78;99509.22;2709428;88;20980;-70
2021/06/20 14:21:42;;;;;;;48.38;10.82;;;;;;;35.97;44.79;99513.31;2708959;86;21069;-71
2021/06/20 14:25:44;;;;;;;9.28;5.70;;;;;;;35.75;44.31;99507.22;2802719;85;20965;-70
2021/06/20 14:29:46;;;;;;;5.03;4.58;;;;;;;35.71;46.46;99511.17;2806429;85;20952;-70
2021/06/20 14:33:47;;;;;;;29.30;7.67;;;;;;;35.69;47.31;99509.29;2806225;85;21015;-70
2021/06/20 14:37:49;;;;;;;6.58;5.33;;;;;;;35.77;47.40;99511.03;2806086;84;21059;-72
2021/06/20 14:41:51;;;;;;;5.62;4.45;;;;;;;35.79;46.46;99508.22;2806007;85;21027;-71
2021/06/20 14:45:57;;;;;;;5.85;4.70;;;;;;;35.91;45.70;99516.53;2806137;84;21043;-71
2021/06/20 14:50:00;;;;;;;6.70;5.90;;;;;;;36.08;45.83;99517.22;2806138;83;21035;-70
2021/06/20 14:54:08;;;;;;;6.12;5.55;;;;;;;36.16;46.50;99513.67;2806045;85;21004;-69
2021/06/20 14:58:10;;;;;;;5.45;4.62;;;;;;;36.19;45.68;99519.16;2805793;83;20995;-70
2021/06/20 15:02:11;;;;;;;11.00;8.30;;;;;;;36.18;45.36;99518.35;2805635;85;21031;-69
2021/06/20 15:06:13;;;;;;;7.00;5.97;;;;;;;36.08;44.67;99511.13;2805852;85;20968;-69
2021/06/20 15:10:15;;;;;;;7.42;6.22;;;;;;;36.07;46.62;99519.73;2805815;84;21072;-70
2021/06/20 15:14:18;;;;;;;6.60;5.85;;;;;;;35.98;45.56;99510.80;2805781;85;21031;-69
2021/06/20 15:18:21;;;;;;;6.87;6.20;;;;;;;35.89;44.35;99512.68;2806015;85;21024;-70
2021/06/20 15:22:23;;;;;;;6.72;6.00;;;;;;;35.88;46.46;99509.66;2787754;85;21541;-70
2021/06/20 15:26:26;;;;;;;6.17;5.67;;;;;;;35.82;46.36;99498.48;2803285;85;20996;-70
2021/06/20 15:30:28;;;;;;;6.47;5.87;;;;;;;35.86;47.29;99499.48;2786115;84;20987;-70
2021/06/20 15:34:31;;;;;;;7.87;6.83;;;;;;;35.81;47.80;99489.36;2824643;84;21015;-70
2021/06/20 15:38:33;;;;;;;7.15;6.45;;;;;;;35.82;48.00;99492.95;2844738;83;21059;-72
2021/06/20 15:42:35;;;;;;;6.92;6.35;;;;;;;35.81;47.63;99484.41;2766856;84;21073;-71
2021/06/20 15:46:40;;;;;;;12.53;6.58;;;;;;;35.73;47.32;99482.63;2714087;86;21083;-72
2021/06/20 15:50:43;;;;;;;6.58;5.70;;;;;;;35.70;48.64;99476.35;2784653;85;20996;-70
2021/06/20 15:54:54;;;;;;;6.28;5.35;;;;;;;35.66;48.83;99466.22;2711738;87;21005;-69
2021/06/20 15:58:49;;;;;;;25.45;7.28;;;;;;;35.59;49.04;99460.58;2782349;85;21461;-70
2021/06/20 16:02:51;;;;;;;6.00;5.37;;;;;;;35.53;49.32;99462.40;2762192;86;21012;-70
2021/06/20 16:06:53;;;;;;;6.00;5.40;;;;;;;35.42;49.74;99460.42;2814953;84;21059;-70
2021/06/20 16:10:56;;;;;;;33.75;11.08;;;;;;;35.28;50.85;99454.39;2765857;86;21003;-70
2021/06/20 16:14:58;;;;;;;8.68;5.90;;;;;;;35.09;50.80;99456.50;2856579;83;20991;-71
2021/06/20 16:18:59;;;;;;;12.73;5.60;;;;;;;34.87;51.20;99450.58;2765525;86;21048;-71
2021/06/20 16:23:01;;;;;;;10.53;7.60;;;;;;;34.57;51.75;99448.70;2765696;86;21101;-71
2021/06/20 16:27:07;;;;;;;13.88;11.33;;;;;;;34.30;51.96;99454.45;2842705;83;21038;-71
2021/06/20 16:31:09;;;;;;;8.48;7.00;;;;;;;34.02;52.57;99451.68;2786462;83;21044;-71
2021/06/20 16:35:17;;;;;;;11.83;10.38;;;;;;;33.78;53.06;99444.90;2775000;85;21067;-71
2021/06/20 16:39:18;;;;;;;8.20;6.72;;;;;;;33.59;53.64;99440.24;2775899;85;21072;-70
2021/06/20 16:43:20;;;;;;;6.75;6.08;;;;;;;33.39;54.56;99432.27;2776003;85;21096;-71
2021/06/20 16:47:24;;;;;;;12.28;7.15;;;;;;;33.19;55.75;99425.97;2775597;84;21048;-70
2021/06/20 16:51:25;;;;;;;10.55;7.53;;;;;;;32.97;56.56;99429.30;2777262;85;20997;-73
2021/06/20 16:55:27;;;;;;;10.50;6.72;;;;;;;32.83;57.23;99424.52;2776725;85;21060;-74
2021/06/20 16:59:29;;;;;;;8.38;7.60;;;;;;;32.65;57.96;99422.56;2738969;85;21014;-74
2021/06/20 17:03:31;;;;;;;9.75;6.90;;;;;;;32.47;58.77;99424.41;2812291;84;21027;-75
2021/06/20 17:07:33;;;;;;;7.78;6.97;;;;;;;32.29;58.70;99421.84;2812341;84;20999;-76
2021/06/20 17:11:35;;;;;;;8.08;7.30;;;;;;;32.11;59.36;99421.22;2812519;84;21054;-75
2021/06/20 17:15:39;;;;;;;9.93;8.83;;;;;;;31.96;59.35;99421.63;2812181;84;21065;-75
2021/06/20 17:19:41;;;;;;;12.33;8.25;;;;;;;31.81;59.75;99421.77;2812453;84;21007;-75
2021/06/20 17:23:44;;;;;;;12.47;8.68;;;;;;;31.70;60.29;99408.64;2812393;84;21556;-75
2021/06/20 17:27:49;;;;;;;8.05;7.25;;;;;;;31.60;60.94;99406.27;2812533;84;21019;-74
2021/06/20 17:31:51;;;;;;;10.05;9.13;;;;;;;31.45;61.62;99407.22;2843926;83;21019;-71
2021/06/20 17:35:53;;;;;;;10.25;8.68;;;;;;;31.33;61.97;99396.57;2778630;84;21381;-74
2021/06/20 17:39:54;;;;;;;10.50;8.85;;;;;;;31.23;62.46;99403.53;2857215;83;21074;-74
2021/06/20 17:43:56;;;;;;;10.43;8.95;;;;;;;31.05;62.74;99396.20;2765966;86;21064;-74
2021/06/20 17:47:59;;;;;;;10.65;9.53;;;;;;;30.86;63.78;99393.84;2765289;85;21064;-74
2021/06/20 17:52:01;;;;;;;9.35;8.38;;;;;;;30.72;64.92;99399.14;2766082;86;21013;-74
2021/06/20 17:56:05;;;;;;;11.43;10.32;;;;;;;30.61;65.39;99400.55;2765810;86;21005;-73
2021/06/20 18:00:09;;;;;;;9.85;8.85;;;;;;;30.47;65.61;99394.02;2765589;86;21060;-73
2021/06/20 18:04:10;;;;;;;12.70;10.05;;;;;;;30.34;65.92;99396.78;2818715;83;21056;-74
2021/06/20 18:08:12;;;;;;;11.55;10.38;;;;;;;30.14;66.69;99396.31;2765337;85;21577;-72
2021/06/20 18:12:14;;;;;;;9.55;8.55;;;;;;;29.95;67.13;99399.61;2856033;83;21856;-72
2021/06/20 18:16:17;;;;;;;11.70;9.98;;;;;;;29.79;67.04;99401.56;2765132;86;21092;-72
2021/06/20 18:20:20;;;;;;;11.33;10.18;;;;;;;29.65;67.00;99406.75;2765048;86;21109;-72
2021/06/20 18:24:24;;;;;;;11.63;10.43;;;;;;;29.60;66.84;99410.34;2765205;86;21009;-72
2021/06/20 18:28:26;;;;;;;11.67;10.53;;;;;;;29.53;66.71;99408.97;2765649;86;21044;-72
2021/06/20 18:32:28;;;;;;;16.82;13.38;;;;;;;29.46;66.74;99418.82;2720267;86;21008;-71
2021/06/20 18:36:30;;;;;;;21.68;13.00;;;;;;;29.40;67.09;99426.17;2791232;85;20991;-72
2021/06/20 18:40:33;;;;;;;12.45;11.20;;;;;;;29.42;66.98;99428.69;2791312;85;21068;-71
2021/06/20 18:44:37;;;;;;;14.98;11.48;;;;;;;29.46;66.93;99442.11;2791650;85;21027;-71
2021/06/20 18:48:39;;;;;;;15.88;10.45;;;;;;;29.38;66.63;99435.22;2791177;85;21048;-71
2021/06/20 18:52:40;;;;;;;16.77;12.68;;;;;;;29.38;66.52;99449.44;2791644;85;21020;-70
2021/06/20 18:56:43;;;;;;;18.40;10.75;;;;;;;29.22;66.40;99466.67;2791905;85;21031;-71